Time;durP1;ratioP1;P1;durP2;ratioP2;P2;SDS_P1;SDS_P2;PMS_P1;PMS_P2;Temp;Humidity;BMP_temperature;BMP_pressure;BME280_temperature;BME280_humidity;BME280_pressure;Samples;Min_cycle;Max_cycle;Signal;HPM_P1;HPM_P2
2022/10/04 00:02:25;;;;;;;0.25;0.25;;;;;;;;;;5036813;28;20121;-83
2022/10/04 00:05:04;;;;;;;0.20;0.20;;;;;;;;;;5054196;28;20159;-84
2022/10/04 00:07:34;;;;;;;0.20;0.20;;;;;;;;;;5036904;28;20032;-84
2022/10/04 00:10:06;;;;;;;0.20;0.20;;;;;;;;;;5036441;28;20036;-84
2022/10/04 00:12:33;;;;;;;0.20;0.20;;;;;;;;;;5054722;28;20033;-84
2022/10/04 00:15:01;;;;;;;0.50;0.50;;;;;;;;;;5036237;28;20028;-83
2022/10/04 00:17:30;;;;;;;0.20;0.20;;;;;;;;;;5035971;28;20021;-83
2022/10/04 00:19:56;;;;;;;1.27;1.27;;;;;;;;;;5036225;28;20041;-83
2022/10/04 00:22:31;;;;;;;0.25;0.25;;;;;;;;;;5054023;28;20468;-83
2022/10/04 00:25:06;;;;;;;0.20;0.20;;;;;;;;;;5036598;28;20115;-79
2022/10/04 00:27:32;;;;;;;0.30;0.30;;;;;;;;;;5058331;28;20051;-79
2022/10/04 00:30:00;;;;;;;0.20;0.20;;;;;;;;;;5035920;28;20029;-79
2022/10/04 00:32:38;;;;;;;0.40;0.40;;;;;;;;;;5054048;28;20036;-79
2022/10/04 00:35:24;;;;;;;0.25;0.25;;;;;;;;;;5036042;28;20025;-79
2022/10/04 00:37:58;;;;;;;0.20;0.20;;;;;;;;;;5053828;28;20468;-79
2022/10/04 00:40:29;;;;;;;0.45;0.45;;;;;;;;;;5053430;28;20024;-79
2022/10/04 00:42:58;;;;;;;0.25;0.25;;;;;;;;;;5053805;28;20112;-83
2022/10/04 00:45:27;;;;;;;0.20;0.20;;;;;;;;;;5070452;28;20128;-82
2022/10/04 00:47:52;;;;;;;0.20;0.20;;;;;;;;;;5073912;28;20024;-80
2022/10/04 00:50:17;;;;;;;0.20;0.20;;;;;;;;;;5073498;28;20274;-78
2022/10/04 00:52:48;;;;;;;0.20;0.20;;;;;;;;;;5073477;28;20054;-79
2022/10/04 00:55:34;;;;;;;0.20;0.20;;;;;;;;;;5073509;28;20043;-79
2022/10/04 00:58:01;;;;;;;0.30;0.30;;;;;;;;;;5073720;28;20020;-77
2022/10/04 01:00:33;;;;;;;0.20;0.20;;;;;;;;;;5043868;28;20119;-78
2022/10/04 01:03:02;;;;;;;0.13;0.13;;;;;;;;;;5053343;28;20029;-77
2022/10/04 01:05:35;;;;;;;0.20;0.20;;;;;;;;;;5035495;28;20032;-77
2022/10/04 01:08:03;;;;;;;0.20;0.20;;;;;;;;;;5035762;28;20086;-78
2022/10/04 01:10:38;;;;;;;0.20;0.20;;;;;;;;;;5053781;28;20028;-77
2022/10/04 01:13:07;;;;;;;0.30;0.30;;;;;;;;;;5035500;28;20082;-76
2022/10/04 01:15:32;;;;;;;;;;;;;;;;;;5053512;28;20376;-78
2022/10/04 01:18:24;;;;;;;0.20;0.20;;;;;;;;;;5053101;28;19913;-77
2022/10/04 01:20:50;;;;;;;0.30;0.30;;;;;;;;;;5049958;28;20295;-75
2022/10/04 01:23:29;;;;;;;0.20;0.20;;;;;;;;;;5035465;28;20158;-75
2022/10/04 01:25:55;;;;;;;0.10;0.10;;;;;;;;;;5053260;28;20107;-76
2022/10/04 01:28:21;;;;;;;0.35;0.35;;;;;;;;;;5053131;28;20036;-76
2022/10/04 01:30:46;;;;;;;0.20;0.20;;;;;;;;;;5034408;28;20036;-76
2022/10/04 01:33:12;;;;;;;0.20;0.20;;;;;;;;;;5072869;28;20028;-77
2022/10/04 01:35:37;;;;;;;0.22;0.22;;;;;;;;;;5065774;28;20017;-76
2022/10/04 01:38:06;;;;;;;0.30;0.30;;;;;;;;;;5035228;28;20072;-77
2022/10/04 01:40:37;;;;;;;0.20;0.20;;;;;;;;;;5035149;28;20021;-81
2022/10/04 01:43:07;;;;;;;0.20;0.20;;;;;;;;;;5052817;28;20033;-78
2022/10/04 01:45:42;;;;;;;0.30;0.30;;;;;;;;;;5035961;28;20029;-77
2022/10/04 01:48:14;;;;;;;0.20;0.20;;;;;;;;;;5052929;28;20033;-83
2022/10/04 01:50:46;;;;;;;2.08;1.98;;;;;;;;;;5035051;28;20032;-84
2022/10/04 01:53:15;;;;;;;0.10;0.10;;;;;;;;;;5053036;28;20102;-83
2022/10/04 01:55:43;;;;;;;2.15;2.00;;;;;;;;;;5066794;28;20039;-83
2022/10/04 01:58:12;;;;;;;0.20;0.20;;;;;;;;;;5055145;28;20064;-84
2022/10/04 02:00:44;;;;;;;0.20;0.20;;;;;;;;;;5056488;28;20077;-78
2022/10/04 02:03:21;;;;;;;0.68;0.68;;;;;;;;;;5035079;28;20037;-78
2022/10/04 02:05:52;;;;;;;0.25;0.25;;;;;;;;;;5052776;28;20120;-81
2022/10/04 02:08:22;;;;;;;0.20;0.20;;;;;;;;;;5052579;28;20472;-81
2022/10/04 02:10:48;;;;;;;0.30;0.30;;;;;;;;;;5052911;28;20025;-82
2022/10/04 02:13:17;;;;;;;0.20;0.20;;;;;;;;;;5052844;28;20040;-82
2022/10/04 02:15:43;;;;;;;0.25;0.25;;;;;;;;;;5018193;28;20041;-81
2022/10/04 02:18:13;;;;;;;0.22;0.22;;;;;;;;;;5034885;28;20037;-79
2022/10/04 02:20:40;;;;;;;0.20;0.20;;;;;;;;;;5034706;28;20033;-80
2022/10/04 02:23:06;;;;;;;0.17;0.17;;;;;;;;;;5053066;28;20531;-80
2022/10/04 02:25:34;;;;;;;0.20;0.20;;;;;;;;;;5052760;28;20017;-80
2022/10/04 02:28:00;;;;;;;0.20;0.20;;;;;;;;;;5038775;28;20455;-80
2022/10/04 02:30:26;;;;;;;0.30;0.30;;;;;;;;;;5069342;28;20029;-83
2022/10/04 02:33:02;;;;;;;0.20;0.20;;;;;;;;;;5034761;28;20028;-81
2022/10/04 02:35:34;;;;;;;0.20;0.20;;;;;;;;;;5052462;28;20032;-83
2022/10/04 02:38:02;;;;;;;0.20;0.20;;;;;;;;;;5052605;28;20032;-84
2022/10/04 02:40:30;;;;;;;0.20;0.20;;;;;;;;;;5052661;28;20033;-79
2022/10/04 02:43:02;;;;;;;0.22;0.22;;;;;;;;;;5034462;28;20035;-79
2022/10/04 02:45:36;;;;;;;0.20;0.20;;;;;;;;;;5070163;28;20039;-80
2022/10/04 02:48:06;;;;;;;0.40;0.40;;;;;;;;;;5075955;28;20067;-80
2022/10/04 02:50:45;;;;;;;0.20;0.20;;;;;;;;;;5076052;28;20031;-80
2022/10/04 02:53:16;;;;;;;0.20;0.20;;;;;;;;;;5075998;28;20029;-80
2022/10/04 02:55:42;;;;;;;0.30;0.30;;;;;;;;;;5075814;28;20063;-81
2022/10/04 02:58:09;;;;;;;0.20;0.20;;;;;;;;;;5057778;28;20472;-81
2022/10/04 03:00:45;;;;;;;0.20;0.20;;;;;;;;;;5059276;28;20035;-81
2022/10/04 03:03:10;;;;;;;0.20;0.20;;;;;;;;;;5034169;28;20388;-81
2022/10/04 03:05:36;;;;;;;0.22;0.22;;;;;;;;;;5052002;28;20031;-81
2022/10/04 03:08:05;;;;;;;0.45;0.45;;;;;;;;;;5051941;28;20025;-78
2022/10/04 03:10:31;;;;;;;0.20;0.20;;;;;;;;;;5051573;28;20040;-77
2022/10/04 03:12:57;;;;;;;0.20;0.20;;;;;;;;;;5054720;28;20115;-77
2022/10/04 03:15:23;;;;;;;0.28;0.28;;;;;;;;;;5053346;28;20052;-77
2022/10/04 03:17:49;;;;;;;0.60;0.60;;;;;;;;;;5071753;28;20025;-76
2022/10/04 03:20:20;;;;;;;0.40;0.40;;;;;;;;;;5053995;28;20484;-76
2022/10/04 03:22:47;;;;;;;0.20;0.20;;;;;;;;;;5071309;28;20036;-73
2022/10/04 03:25:16;;;;;;;0.20;0.20;;;;;;;;;;5053632;28;20028;-79
2022/10/04 03:27:42;;;;;;;0.20;0.20;;;;;;;;;;5070990;28;20078;-79
2022/10/04 03:30:11;;;;;;;0.30;0.30;;;;;;;;;;5068004;28;20476;-77
2022/10/04 03:32:38;;;;;;;0.20;0.20;;;;;;;;;;5051487;28;20025;-77
2022/10/04 03:35:06;;;;;;;2.45;2.35;;;;;;;;;;5051326;28;20063;-75
2022/10/04 03:37:35;;;;;;;0.30;0.30;;;;;;;;;;5033294;28;20036;-85
2022/10/04 03:40:00;;;;;;;0.30;0.30;;;;;;;;;;5051204;28;20081;-77
2022/10/04 03:42:30;;;;;;;0.20;0.20;;;;;;;;;;5051435;28;20475;-81
2022/10/04 03:44:58;;;;;;;0.20;0.20;;;;;;;;;;5019883;28;20090;-76
2022/10/04 03:47:26;;;;;;;0.30;0.30;;;;;;;;;;5071195;28;20033;-74
2022/10/04 03:49:53;;;;;;;0.30;0.30;;;;;;;;;;5052982;28;20037;-78
2022/10/04 03:52:21;;;;;;;0.20;0.20;;;;;;;;;;5036764;28;20024;-80
2022/10/04 03:54:48;;;;;;;0.20;0.20;;;;;;;;;;5052797;28;20024;-80
2022/10/04 03:57:14;;;;;;;0.50;0.50;;;;;;;;;;5053037;28;20025;-79
2022/10/04 03:59:41;;;;;;;0.20;0.20;;;;;;;;;;5071040;28;20390;-77
2022/10/04 04:02:14;;;;;;;0.28;0.28;;;;;;;;;;5054342;28;20029;-76
2022/10/04 04:04:55;;;;;;;0.20;0.20;;;;;;;;;;5013877;28;20047;-76
2022/10/04 04:07:24;;;;;;;0.20;0.20;;;;;;;;;;5032918;28;20025;-76
2022/10/04 04:10:04;;;;;;;0.20;0.20;;;;;;;;;;5034187;28;20039;-75
2022/10/04 04:12:39;;;;;;;0.30;0.30;;;;;;;;;;5033982;28;20222;-75
2022/10/04 04:15:15;;;;;;;0.10;0.10;;;;;;;;;;5033031;28;20345;-75
2022/10/04 04:17:42;;;;;;;0.20;0.20;;;;;;;;;;5067758;28;20099;-76
2022/10/04 04:20:17;;;;;;;0.20;0.20;;;;;;;;;;5035604;28;20048;-74
2022/10/04 04:22:45;;;;;;;0.20;0.20;;;;;;;;;;5052567;28;20031;-75
2022/10/04 04:25:13;;;;;;;0.20;0.20;;;;;;;;;;5036168;28;20025;-78
2022/10/04 04:27:40;;;;;;;0.20;0.20;;;;;;;;;;5018871;28;20025;-76
2022/10/04 04:30:07;;;;;;;0.28;0.28;;;;;;;;;;5050285;28;20041;-74
2022/10/04 04:32:39;;;;;;;0.20;0.20;;;;;;;;;;5032177;28;20013;-76
2022/10/04 04:35:07;;;;;;;0.20;0.20;;;;;;;;;;5024912;28;20094;-76
2022/10/04 04:37:36;;;;;;;0.38;0.38;;;;;;;;;;5040008;28;20428;-80
2022/10/04 04:40:22;;;;;;;0.30;0.30;;;;;;;;;;5032353;28;20036;-80
2022/10/04 04:42:48;;;;;;;0.20;0.20;;;;;;;;;;5048613;28;20045;-76
2022/10/04 04:45:16;;;;;;;0.20;0.20;;;;;;;;;;5038660;28;20086;-76
2022/10/04 04:47:43;;;;;;;0.15;0.15;;;;;;;;;;5034952;28;20030;-75
2022/10/04 04:50:12;;;;;;;0.20;0.20;;;;;;;;;;5033701;28;20495;-74
2022/10/04 04:52:38;;;;;;;0.20;0.20;;;;;;;;;;5050090;28;20032;-76
2022/10/04 04:55:04;;;;;;;0.30;0.30;;;;;;;;;;5015679;28;20040;-76
2022/10/04 04:57:32;;;;;;;0.20;0.20;;;;;;;;;;5014460;28;20048;-75
2022/10/04 04:59:59;;;;;;;0.20;0.20;;;;;;;;;;5054519;28;20033;-75
2022/10/04 05:02:35;;;;;;;0.20;0.20;;;;;;;;;;5052200;28;20064;-81
2022/10/04 05:05:14;;;;;;;2.22;0.52;;;;;;;;;;5014303;28;20473;-82
2022/10/04 05:07:43;;;;;;;0.20;0.20;;;;;;;;;;5060112;28;20507;-86
2022/10/04 05:10:31;;;;;;;0.30;0.30;;;;;;;;;;5034876;28;20040;-81
2022/10/04 05:12:58;;;;;;;0.15;0.15;;;;;;;;;;5033898;28;20831;-82
2022/10/04 05:15:24;;;;;;;0.60;0.60;;;;;;;;;;5039952;28;20045;-82
2022/10/04 05:17:50;;;;;;;0.20;0.20;;;;;;;;;;5031035;28;20024;-79
2022/10/04 05:20:16;;;;;;;0.20;0.20;;;;;;;;;;5047005;28;20054;-77
2022/10/04 05:22:45;;;;;;;0.30;0.30;;;;;;;;;;5049138;28;20021;-74
2022/10/04 05:25:17;;;;;;;0.10;0.10;;;;;;;;;;5033926;28;20029;-79
2022/10/04 05:27:43;;;;;;;3.72;3.55;;;;;;;;;;5035184;28;20056;-79
2022/10/04 05:30:28;;;;;;;0.20;0.20;;;;;;;;;;5051430;28;20112;-81
2022/10/04 05:32:53;;;;;;;0.17;0.17;;;;;;;;;;5050968;28;20082;-82
2022/10/04 05:35:20;;;;;;;0.52;0.52;;;;;;;;;;5057568;28;20032;-81
2022/10/04 05:37:55;;;;;;;0.25;0.25;;;;;;;;;;5033544;28;20024;-80
2022/10/04 05:40:32;;;;;;;0.20;0.20;;;;;;;;;;5067381;28;20040;-79
2022/10/04 05:42:58;;;;;;;0.20;0.20;;;;;;;;;;5066769;28;20086;-81
2022/10/04 05:45:27;;;;;;;0.20;0.20;;;;;;;;;;5053729;28;20033;-80
2022/10/04 05:47:53;;;;;;;;;;;;;;;;;;5059313;28;20380;-80
2022/10/04 05:50:39;;;;;;;0.10;0.10;;;;;;;;;;5069044;28;19905;-79
2022/10/04 05:53:13;;;;;;;0.20;0.20;;;;;;;;;;5068286;28;20063;-80
2022/10/04 05:55:45;;;;;;;0.20;0.20;;;;;;;;;;5039521;28;20032;-82
2022/10/04 05:58:30;;;;;;;32.42;4.85;;;;;;;;;;5030882;28;20032;-78
2022/10/04 06:01:16;;;;;;;5.32;4.88;;;;;;;;;;5016785;28;20047;-76
2022/10/04 06:03:47;;;;;;;0.47;0.47;;;;;;;;;;5066395;28;20047;-77
2022/10/04 06:06:18;;;;;;;0.20;0.20;;;;;;;;;;5051063;28;20024;-76
2022/10/04 06:08:44;;;;;;;0.40;0.40;;;;;;;;;;5054190;28;20033;-77
2022/10/04 06:11:18;;;;;;;0.30;0.30;;;;;;;;;;5032672;28;20040;-77
2022/10/04 06:13:59;;;;;;;0.20;0.20;;;;;;;;;;5067316;28;20025;-76
2022/10/04 06:16:40;;;;;;;0.20;0.20;;;;;;;;;;5064786;28;20079;-76
2022/10/04 06:19:08;;;;;;;2.28;2.17;;;;;;;;;;5032041;28;20037;-74
2022/10/04 06:21:52;;;;;;;0.20;0.20;;;;;;;;;;5023033;28;20053;-76
2022/10/04 06:24:20;;;;;;;0.10;0.10;;;;;;;;;;5051282;28;20115;-76
2022/10/04 06:27:07;;;;;;;0.10;0.10;;;;;;;;;;5037692;28;20617;-75
2022/10/04 06:29:36;;;;;;;0.57;0.57;;;;;;;;;;5051328;28;20033;-78
2022/10/04 06:32:22;;;;;;;0.30;0.30;;;;;;;;;;5034829;28;20025;-77
2022/10/04 06:34:48;;;;;;;0.60;0.60;;;;;;;;;;5043169;28;20033;-77
2022/10/04 06:37:25;;;;;;;0.25;0.25;;;;;;;;;;5055894;28;20031;-77
2022/10/04 06:40:00;;;;;;;0.13;0.13;;;;;;;;;;5069848;28;20039;-77
2022/10/04 06:42:35;;;;;;;0.32;0.30;;;;;;;;;;5041720;28;20033;-78
2022/10/04 06:45:20;;;;;;;0.40;0.40;;;;;;;;;;5054554;28;20695;-76
2022/10/04 06:48:03;;;;;;;0.20;0.20;;;;;;;;;;5073833;28;20530;-74
2022/10/04 06:50:39;;;;;;;0.30;0.30;;;;;;;;;;5038726;28;20071;-76
2022/10/04 06:53:23;;;;;;;0.20;0.20;;;;;;;;;;5037145;28;20136;-78
2022/10/04 06:55:52;;;;;;;0.20;0.20;;;;;;;;;;5049956;28;20029;-77
2022/10/04 06:58:29;;;;;;;0.40;0.40;;;;;;;;;;5039941;28;20029;-79
2022/10/04 07:01:03;;;;;;;0.20;0.20;;;;;;;;;;5070915;28;20031;-81
2022/10/04 07:03:40;;;;;;;0.20;0.20;;;;;;;;;;5052205;28;20043;-82
2022/10/04 07:06:09;;;;;;;0.20;0.20;;;;;;;;;;5017747;28;20039;-84
2022/10/04 07:08:48;;;;;;;0.15;0.15;;;;;;;;;;5034326;28;20025;-77
2022/10/04 07:11:17;;;;;;;0.20;0.20;;;;;;;;;;5033856;28;20392;-78
2022/10/04 07:13:58;;;;;;;0.20;0.20;;;;;;;;;;5017639;28;20119;-77
2022/10/04 07:16:29;;;;;;;0.20;0.20;;;;;;;;;;5033465;28;20052;-78
2022/10/04 07:18:58;;;;;;;0.20;0.20;;;;;;;;;;5051546;28;20107;-77
2022/10/04 07:21:26;;;;;;;0.20;0.20;;;;;;;;;;5051963;28;20033;-79
2022/10/04 07:24:02;;;;;;;0.20;0.20;;;;;;;;;;5017522;28;20048;-79
2022/10/04 07:26:34;;;;;;;0.32;0.32;;;;;;;;;;5051766;28;20041;-74
2022/10/04 07:29:19;;;;;;;0.20;0.20;;;;;;;;;;5033599;28;20029;-75
2022/10/04 07:31:46;;;;;;;0.30;0.30;;;;;;;;;;5051091;28;20029;-79
2022/10/04 07:34:17;;;;;;;1.00;1.00;;;;;;;;;;5017035;28;20052;-75
2022/10/04 07:36:45;;;;;;;0.20;0.20;;;;;;;;;;5033313;28;20083;-76
2022/10/04 07:39:20;;;;;;;0.20;0.20;;;;;;;;;;5033580;28;20045;-73
2022/10/04 07:41:56;;;;;;;0.20;0.20;;;;;;;;;;5016958;28;20039;-77
2022/10/04 07:44:26;;;;;;;0.20;0.20;;;;;;;;;;5016896;28;20064;-78
2022/10/04 07:46:52;;;;;;;0.20;0.20;;;;;;;;;;5032785;28;20027;-75
2022/10/04 07:49:21;;;;;;;0.85;0.60;;;;;;;;;;5032940;28;20032;-77
2022/10/04 07:52:06;;;;;;;0.73;0.73;;;;;;;;;;5016681;28;20082;-77
2022/10/04 07:54:38;;;;;;;0.20;0.20;;;;;;;;;;5051359;28;20111;-78
2022/10/04 07:57:06;;;;;;;0.30;0.30;;;;;;;;;;5055518;28;20048;-73
2022/10/04 07:59:35;;;;;;;0.30;0.30;;;;;;;;;;5041386;28;20040;-77
2022/10/04 08:02:25;;;;;;;0.20;0.20;;;;;;;;;;5060469;28;20212;-80
2022/10/04 08:04:57;;;;;;;2.28;2.17;;;;;;;;;;5026935;28;20107;-79
2022/10/04 08:07:37;;;;;;;0.22;0.22;;;;;;;;;;5033658;28;20028;-76
2022/10/04 08:10:06;;;;;;;1.45;1.45;;;;;;;;;;5042499;28;20052;-75
2022/10/04 08:12:47;;;;;;;0.30;0.30;;;;;;;;;;5065761;28;20100;-78
2022/10/04 08:15:12;;;;;;;0.95;0.65;;;;;;;;;;5023889;28;20290;-75
2022/10/04 08:17:38;;;;;;;0.28;0.28;;;;;;;;;;5060479;28;20465;-74
2022/10/04 08:20:06;;;;;;;0.20;0.20;;;;;;;;;;5061970;28;20068;-74
2022/10/04 08:22:37;;;;;;;2.33;0.70;;;;;;;;;;5061317;28;20028;-75
2022/10/04 08:25:03;;;;;;;0.20;0.20;;;;;;;;;;5064806;28;20387;-75
2022/10/04 08:27:29;;;;;;;0.20;0.20;;;;;;;;;;5067154;28;20024;-74
2022/10/04 08:30:11;;;;;;;0.20;0.20;;;;;;;;;;5051961;28;20029;-73
2022/10/04 08:32:36;;;;;;;0.10;0.10;;;;;;;;;;5035464;28;20054;-74
2022/10/04 08:35:10;;;;;;;0.20;0.20;;;;;;;;;;5066518;28;20036;-73
2022/10/04 08:37:54;;;;;;;0.10;0.10;;;;;;;;;;5050864;28;20514;-75
2022/10/04 08:40:20;;;;;;;0.30;0.30;;;;;;;;;;5060912;28;20166;-74
2022/10/04 08:43:04;;;;;;;0.30;0.30;;;;;;;;;;5048678;28;20111;-74
2022/10/04 08:45:48;;;;;;;0.20;0.20;;;;;;;;;;5052148;28;20079;-74
2022/10/04 08:48:17;;;;;;;3.30;3.10;;;;;;;;;;5050264;28;20025;-74
2022/10/04 08:50:51;;;;;;;0.20;0.20;;;;;;;;;;5053766;28;20376;-75
2022/10/04 08:53:26;;;;;;;0.68;0.65;;;;;;;;;;5055753;28;20475;-75
2022/10/04 08:56:09;;;;;;;0.20;0.20;;;;;;;;;;5042236;28;20380;-74
2022/10/04 08:58:53;;;;;;;0.32;0.32;;;;;;;;;;5069821;28;20128;-73
2022/10/04 09:01:37;;;;;;;0.30;0.30;;;;;;;;;;5068498;28;20479;-74
2022/10/04 09:04:22;;;;;;;0.40;0.40;;;;;;;;;;5052994;28;20104;-75
2022/10/04 09:06:53;;;;;;;0.20;0.20;;;;;;;;;;5058345;28;20036;-76
2022/10/04 09:09:25;;;;;;;0.22;0.22;;;;;;;;;;5019935;28;20037;-77
2022/10/04 09:11:59;;;;;;;0.20;0.20;;;;;;;;;;5049108;28;20421;-74
2022/10/04 09:14:29;;;;;;;0.22;0.22;;;;;;;;;;5049544;28;20032;-73
2022/10/04 09:16:55;;;;;;;0.20;0.20;;;;;;;;;;5053929;28;20037;-73
2022/10/04 09:19:39;;;;;;;0.20;0.20;;;;;;;;;;5066736;28;20506;-73
2022/10/04 09:22:38;;;;;;;0.20;0.20;;;;;;;;;;5068976;28;20028;-75
2022/10/04 09:25:21;;;;;;;0.20;0.20;;;;;;;;;;5007485;28;20068;-74
2022/10/04 09:28:05;;;;;;;0.28;0.28;;;;;;;;;;5069136;28;20028;-72
2022/10/04 09:30:42;;;;;;;0.20;0.20;;;;;;;;;;5069035;28;20039;-72
2022/10/04 09:33:20;;;;;;;2.83;2.42;;;;;;;;;;5068994;28;20029;-73
2022/10/04 09:36:05;;;;;;;0.30;0.30;;;;;;;;;;5069138;28;20045;-73
2022/10/04 09:38:34;;;;;;;1.20;1.10;;;;;;;;;;5068949;28;20460;-72
2022/10/04 09:41:09;;;;;;;2.17;1.40;;;;;;;;;;5068732;28;20131;-72
2022/10/04 09:43:41;;;;;;;0.20;0.20;;;;;;;;;;5061348;28;20016;-73
2022/10/04 09:46:28;;;;;;;0.22;0.22;;;;;;;;;;5060707;28;20167;-74
2022/10/04 09:49:12;;;;;;;0.20;0.20;;;;;;;;;;5053907;28;20021;-73
2022/10/04 09:51:41;;;;;;;0.45;0.45;;;;;;;;;;5056761;28;20055;-73
2022/10/04 09:54:06;;;;;;;;;;;;;;;;;;5065455;28;20028;-73
2022/10/04 09:56:50;;;;;;;1.37;0.80;;;;;;;;;;5068822;28;19913;-74
2022/10/04 09:59:31;;;;;;;0.20;0.20;;;;;;;;;;5069828;28;20377;-72
2022/10/04 10:01:59;;;;;;;0.47;0.47;;;;;;;;;;5033231;28;20048;-73
2022/10/04 10:04:25;;;;;;;0.20;0.20;;;;;;;;;;5062025;28;20091;-73
2022/10/04 10:07:07;;;;;;;0.30;0.30;;;;;;;;;;5069988;28;20602;-71
2022/10/04 10:15:43;;;;;;;0.30;0.30;;;;;;;;;;5068961;28;20851;-74
2022/10/04 10:18:13;;;;;;;0.20;0.20;;;;;;;;;;5062171;28;20040;-74
2022/10/04 10:20:52;;;;;;;0.30;0.30;;;;;;;;;;5042218;28;20047;-74
2022/10/04 10:23:35;;;;;;;1.50;1.07;;;;;;;;;;5068546;28;20025;-73
2022/10/04 10:26:06;;;;;;;0.85;0.85;;;;;;;;;;5062548;28;20274;-75
2022/10/04 10:28:50;;;;;;;2.25;1.13;;;;;;;;;;5045566;28;20087;-74
2022/10/04 10:31:34;;;;;;;0.90;0.73;;;;;;;;;;5045704;28;20036;-73
2022/10/04 10:34:14;;;;;;;0.95;0.73;;;;;;;;;;5070102;28;20044;-73
2022/10/04 10:36:48;;;;;;;2.17;0.90;;;;;;;;;;5052607;28;20039;-74
2022/10/04 10:39:32;;;;;;;0.80;0.70;;;;;;;;;;5070635;28;20025;-73
2022/10/04 10:42:02;;;;;;;0.20;0.20;;;;;;;;;;5069089;28;20040;-73
2022/10/04 10:44:32;;;;;;;0.30;0.30;;;;;;;;;;5052151;28;20384;-74
2022/10/04 10:47:17;;;;;;;0.22;0.22;;;;;;;;;;5068449;28;20115;-73
2022/10/04 10:49:43;;;;;;;8.50;2.47;;;;;;;;;;5035645;28;20035;-72
2022/10/04 10:52:27;;;;;;;0.60;0.60;;;;;;;;;;5050602;28;20399;-74
2022/10/04 10:54:56;;;;;;;2.35;0.90;;;;;;;;;;5055949;28;20497;-73
2022/10/04 10:57:33;;;;;;;0.88;0.70;;;;;;;;;;5069692;28;20063;-72
2022/10/04 11:00:03;;;;;;;0.85;0.77;;;;;;;;;;5041220;28;20033;-73
2022/10/04 11:02:56;;;;;;;2.60;0.70;;;;;;;;;;5027771;28;20066;-73
2022/10/04 11:05:40;;;;;;;0.68;0.63;;;;;;;;;;5060406;28;20040;-72
2022/10/04 11:08:26;;;;;;;0.20;0.20;;;;;;;;;;5069530;28;20032;-74
2022/10/04 11:11:10;;;;;;;1.50;0.77;;;;;;;;;;5071665;28;20033;-73
2022/10/04 11:13:53;;;;;;;0.20;0.20;;;;;;;;;;5065064;28;20036;-74
2022/10/04 11:16:37;;;;;;;1.63;0.85;;;;;;;;;;5071459;28;20119;-72
2022/10/04 11:19:20;;;;;;;0.30;0.30;;;;;;;;;;5071088;28;20064;-74
2022/10/04 11:22:06;;;;;;;0.20;0.20;;;;;;;;;;5071707;28;20053;-73
2022/10/04 11:24:51;;;;;;;1.45;0.60;;;;;;;;;;5069992;28;20487;-73
2022/10/04 11:27:17;;;;;;;0.40;0.40;;;;;;;;;;5069524;28;20051;-73
2022/10/04 11:29:42;;;;;;;0.98;0.80;;;;;;;;;;5069510;28;20464;-75
2022/10/04 11:32:14;;;;;;;0.70;0.43;;;;;;;;;;5063952;28;20028;-72
2022/10/04 11:34:40;;;;;;;1.02;0.38;;;;;;;;;;5060799;28;20028;-73
2022/10/04 11:37:26;;;;;;;1.92;0.75;;;;;;;;;;5051013;28;20032;-72
2022/10/04 11:39:54;;;;;;;0.47;0.47;;;;;;;;;;5054223;28;20045;-72
2022/10/04 11:42:29;;;;;;;1.10;0.63;;;;;;;;;;5068628;28;20467;-72
2022/10/04 11:45:04;;;;;;;0.85;0.85;;;;;;;;;;5069085;28;20113;-73
2022/10/04 11:47:38;;;;;;;0.30;0.30;;;;;;;;;;5040341;28;20029;-72
2022/10/04 11:50:22;;;;;;;0.20;0.20;;;;;;;;;;5065686;28;20048;-72
2022/10/04 11:52:54;;;;;;;1.60;0.50;;;;;;;;;;5064329;28;20380;-72
2022/10/04 11:55:41;;;;;;;0.50;0.50;;;;;;;;;;5049495;28;20037;-71
2022/10/04 11:58:16;;;;;;;0.70;0.55;;;;;;;;;;5053027;28;20449;-75
2022/10/04 12:00:45;;;;;;;0.43;0.30;;;;;;;;;;5069702;28;20506;-72
2022/10/04 12:03:19;;;;;;;0.83;0.73;;;;;;;;;;5070760;28;20063;-72
2022/10/04 12:05:54;;;;;;;0.52;0.50;;;;;;;;;;5052764;28;20270;-73
2022/10/04 12:08:38;;;;;;;1.65;0.50;;;;;;;;;;5053062;28;20099;-73
2022/10/04 12:11:07;;;;;;;3.55;0.80;;;;;;;;;;5051665;28;20413;-74
2022/10/04 12:13:50;;;;;;;0.77;0.60;;;;;;;;;;5069142;28;20035;-73
2022/10/04 12:16:28;;;;;;;2.03;0.80;;;;;;;;;;5068412;28;20087;-72
2022/10/04 12:19:14;;;;;;;2.78;0.40;;;;;;;;;;5068458;28;20028;-72
2022/10/04 12:22:11;;;;;;;0.38;0.38;;;;;;;;;;5068653;28;20044;-73
2022/10/04 12:24:56;;;;;;;2.05;0.80;;;;;;;;;;5068642;28;20388;-73
2022/10/04 12:27:29;;;;;;;0.90;0.57;;;;;;;;;;5070049;28;20064;-74
2022/10/04 12:30:13;;;;;;;0.60;0.40;;;;;;;;;;5052184;28;20028;-72
2022/10/04 12:33:04;;;;;;;0.80;0.68;;;;;;;;;;5070613;28;20048;-73
2022/10/04 12:35:46;;;;;;;1.55;0.77;;;;;;;;;;5034057;28;20403;-74
2022/10/04 12:38:24;;;;;;;0.25;0.25;;;;;;;;;;5052262;28;20032;-73
2022/10/04 12:41:10;;;;;;;0.52;0.28;;;;;;;;;;5049283;28;20122;-72
2022/10/04 12:43:37;;;;;;;0.52;0.52;;;;;;;;;;5048240;28;20029;-72
2022/10/04 12:46:02;;;;;;;0.32;0.32;;;;;;;;;;5049976;28;20032;-74
2022/10/04 12:48:43;;;;;;;9.68;1.15;;;;;;;;;;5049358;28;20376;-73
2022/10/04 12:51:31;;;;;;;0.43;0.32;;;;;;;;;;5032128;28;20472;-75
2022/10/04 12:54:11;;;;;;;2.53;0.80;;;;;;;;;;5032044;28;20029;-73
2022/10/04 12:56:54;;;;;;;2.47;0.80;;;;;;;;;;5031915;28;20764;-75
2022/10/04 12:59:26;;;;;;;0.65;0.60;;;;;;;;;;5050023;28;20036;-75
2022/10/04 13:01:59;;;;;;;0.60;0.45;;;;;;;;;;5032128;28;20136;-74
2022/10/04 13:04:43;;;;;;;12.57;0.65;;;;;;;;;;5050300;28;20376;-74
2022/10/04 13:07:32;;;;;;;0.20;0.20;;;;;;;;;;5049839;28;20040;-74
2022/10/04 13:10:07;;;;;;;0.52;0.43;;;;;;;;;;5049813;28;20037;-74
2022/10/04 13:12:51;;;;;;;1.95;0.60;;;;;;;;;;5049865;28;20029;-75
2022/10/04 13:15:22;;;;;;;0.25;0.25;;;;;;;;;;5031428;28;20025;-74
2022/10/04 13:18:03;;;;;;;0.30;0.30;;;;;;;;;;5031928;28;20029;-74
2022/10/04 13:20:28;;;;;;;0.20;0.20;;;;;;;;;;5049882;28;20113;-74
2022/10/04 13:23:00;;;;;;;0.30;0.30;;;;;;;;;;5049081;28;20025;-73
2022/10/04 13:25:28;;;;;;;0.40;0.40;;;;;;;;;;5049662;28;20037;-74
2022/10/04 13:27:57;;;;;;;3.37;0.77;;;;;;;;;;5049931;28;20029;-74
2022/10/04 13:30:25;;;;;;;0.57;0.47;;;;;;;;;;5049397;28;20025;-74
2022/10/04 13:33:00;;;;;;;2.08;0.85;;;;;;;;;;5031114;28;20275;-74
2022/10/04 13:35:33;;;;;;;0.30;0.30;;;;;;;;;;5062122;28;20134;-75
2022/10/04 13:38:23;;;;;;;0.30;0.30;;;;;;;;;;5051481;28;20538;-75
2022/10/04 13:40:55;;;;;;;0.40;0.40;;;;;;;;;;5061425;28;20048;-74
2022/10/04 13:43:21;;;;;;;1.02;0.55;;;;;;;;;;5069300;28;20029;-74
2022/10/04 13:45:52;;;;;;;0.20;0.20;;;;;;;;;;5057419;28;20025;-74
2022/10/04 13:48:24;;;;;;;0.20;0.20;;;;;;;;;;5040058;28;20063;-75
2022/10/04 13:51:16;;;;;;;2.80;1.10;;;;;;;;;;5044419;28;20032;-74
2022/10/04 13:56:40;;;;;;;1.58;0.93;;;;;;;;;;5049162;28;20039;-72
2022/10/04 13:59:20;;;;;;;0.40;0.40;;;;;;;;;;5048882;28;20373;-74
2022/10/04 14:01:48;;;;;;;0.57;0.57;;;;;;;;;;5049503;28;20041;-72
2022/10/04 14:04:23;;;;;;;1.70;0.70;;;;;;;;;;5064664;28;20500;-73
2022/10/04 14:06:48;;;;;;;2.05;0.77;;;;;;;;;;5067521;28;20336;-73
2022/10/04 14:09:21;;;;;;;1.23;0.40;;;;;;;;;;5051240;28;20550;-72
2022/10/04 14:12:02;;;;;;;0.38;0.38;;;;;;;;;;5047519;28;20098;-72
2022/10/04 14:14:51;;;;;;;0.50;0.40;;;;;;;;;;5031056;28;20036;-74
2022/10/04 14:17:36;;;;;;;0.93;0.38;;;;;;;;;;5035403;28;20048;-73
2022/10/04 14:20:40;;;;;;;0.28;0.28;;;;;;;;;;5060005;28;20041;-73
2022/10/04 14:23:12;;;;;;;1.00;0.63;;;;;;;;;;4978902;28;20038;-72
2022/10/04 14:25:46;;;;;;;3.25;1.40;;;;;;;;;;4984981;28;20071;-72
2022/10/04 14:28:31;;;;;;;0.90;0.40;;;;;;;;;;5030544;28;20471;-73
2022/10/04 14:30:57;;;;;;;1.35;0.43;;;;;;;;;;5066687;28;20024;-73
2022/10/04 14:33:25;;;;;;;1.98;0.80;;;;;;;;;;5066475;28;20166;-73
2022/10/04 14:36:09;;;;;;;1.63;0.77;;;;;;;;;;5048563;28;20024;-73
2022/10/04 14:38:41;;;;;;;5.47;1.65;;;;;;;;;;5066659;28;20422;-72
2022/10/04 14:41:12;;;;;;;2.17;0.77;;;;;;;;;;5067416;28;20076;-73
2022/10/04 14:43:57;;;;;;;3.53;0.68;;;;;;;;;;5070581;28;20036;-71
2022/10/04 14:46:34;;;;;;;0.60;0.40;;;;;;;;;;5052032;28;20112;-72
2022/10/04 14:49:18;;;;;;;0.20;0.20;;;;;;;;;;5070822;28;20043;-71
2022/10/04 14:51:50;;;;;;;0.40;0.40;;;;;;;;;;5065812;28;20036;-71
2022/10/04 14:54:21;;;;;;;1.95;0.30;;;;;;;;;;5072121;28;20634;-72
2022/10/04 14:56:57;;;;;;;3.08;1.77;;;;;;;;;;5071105;28;20612;-73
2022/10/04 14:59:42;;;;;;;1.15;0.75;;;;;;;;;;5071294;28;20036;-72
2022/10/04 15:02:10;;;;;;;0.45;0.35;;;;;;;;;;5065828;28;20040;-71
2022/10/04 15:04:55;;;;;;;1.85;1.02;;;;;;;;;;5051980;28;20040;-70
2022/10/04 15:07:22;;;;;;;3.08;0.95;;;;;;;;;;5051363;28;20039;-72
2022/10/04 15:10:05;;;;;;;4.47;0.40;;;;;;;;;;5050509;28;20476;-72
2022/10/04 15:12:31;;;;;;;2.72;0.88;;;;;;;;;;5034460;28;20122;-71
2022/10/04 15:14:56;;;;;;;3.95;0.90;;;;;;;;;;5051849;28;21018;-72
2022/10/04 15:17:26;;;;;;;2.05;0.65;;;;;;;;;;5051577;28;20037;-72
2022/10/04 15:20:00;;;;;;;1.27;0.45;;;;;;;;;;5051537;28;20025;-72
2022/10/04 15:22:29;;;;;;;0.30;0.30;;;;;;;;;;5051854;28;20563;-72
2022/10/04 15:24:55;;;;;;;2.80;0.50;;;;;;;;;;5051443;28;20024;-70
2022/10/04 15:27:34;;;;;;;0.20;0.20;;;;;;;;;;5033987;28;20103;-72
2022/10/04 15:30:09;;;;;;;0.93;0.63;;;;;;;;;;5032213;28;20484;-71
2022/10/04 15:32:34;;;;;;;0.80;0.50;;;;;;;;;;5031607;28;20029;-71